createdAt,value
2017-08-03T00:00:20.565Z,12.27
2017-08-03T00:02:48.219Z,13.23
2017-08-03T00:05:15.845Z,12.67
2017-08-03T00:07:43.469Z,14.60
2017-08-03T00:10:11.887Z,11.87
2017-08-03T00:12:39.553Z,13.00
2017-08-03T00:15:07.187Z,14.33
2017-08-03T00:17:34.813Z,12.80
2017-08-03T00:20:02.433Z,14.97
2017-08-03T00:22:30.925Z,13.90
2017-08-03T00:24:58.554Z,13.63
2017-08-03T00:27:26.199Z,12.80
2017-08-03T00:29:53.817Z,15.43
2017-08-03T00:32:21.430Z,13.43
2017-08-03T00:34:49.072Z,11.77
2017-08-03T00:37:16.705Z,15.30
2017-08-03T00:39:44.354Z,13.53
2017-08-03T00:42:11.968Z,13.63
2017-08-03T00:44:40.339Z,13.17
2017-08-03T00:47:07.998Z,14.30
2017-08-03T00:49:35.615Z,13.13
2017-08-03T00:52:04.045Z,13.57
2017-08-03T00:54:31.664Z,13.70
2017-08-03T00:56:59.290Z,13.47
2017-08-03T00:59:26.969Z,13.63
2017-08-03T01:01:54.585Z,13.10
2017-08-03T01:04:22.244Z,13.33
2017-08-03T01:06:49.878Z,12.50
2017-08-03T01:09:17.505Z,15.87
2017-08-03T01:11:45.921Z,13.70
2017-08-03T01:14:13.527Z,12.60
2017-08-03T01:16:41.171Z,12.73
2017-08-03T01:19:09.602Z,13.50
2017-08-03T01:21:37.216Z,14.00
2017-08-03T01:24:04.868Z,12.83
2017-08-03T01:26:32.475Z,13.20
2017-08-03T01:29:00.892Z,13.03
2017-08-03T01:31:28.503Z,12.73
2017-08-03T01:33:56.133Z,12.70
2017-08-03T01:36:24.548Z,13.53
2017-08-03T01:38:52.164Z,13.87
2017-08-03T01:41:19.873Z,12.40
2017-08-03T01:43:48.248Z,12.43
2017-08-03T01:46:16.632Z,14.30
2017-08-03T01:48:44.279Z,14.83
2017-08-03T01:51:11.900Z,13.23
2017-08-03T01:53:40.320Z,14.57
2017-08-03T01:56:07.925Z,13.03
2017-08-03T01:58:35.543Z,13.33
2017-08-03T02:01:03.202Z,12.83
2017-08-03T02:03:31.563Z,13.10
2017-08-03T02:05:59.981Z,12.47
2017-08-03T02:08:27.600Z,12.90
2017-08-03T02:10:55.217Z,14.33
2017-08-03T02:13:22.864Z,12.63
2017-08-03T02:15:50.475Z,12.43
2017-08-03T02:18:18.119Z,13.67
2017-08-03T02:20:45.733Z,14.90
2017-08-03T02:23:13.348Z,15.30
2017-08-03T02:25:41.748Z,14.43
2017-08-03T02:28:09.393Z,15.10
2017-08-03T02:30:37.046Z,16.40
2017-08-03T02:33:04.660Z,14.27
2017-08-03T02:35:33.039Z,14.87
2017-08-03T02:38:00.684Z,13.87
2017-08-03T02:40:28.320Z,13.10
2017-08-03T02:42:55.979Z,12.63
2017-08-03T02:45:23.597Z,15.00
2017-08-03T02:47:51.987Z,14.60
2017-08-03T02:50:19.672Z,13.30
2017-08-03T02:52:47.297Z,13.97
2017-08-03T02:55:14.941Z,15.13
2017-08-03T02:57:42.561Z,13.30
2017-08-03T03:00:10.944Z,12.67
2017-08-03T03:02:38.597Z,14.07
2017-08-03T03:05:06.253Z,14.50
2017-08-03T03:07:33.905Z,15.73
2017-08-03T03:10:01.526Z,14.60
2017-08-03T03:12:29.153Z,16.20
2017-08-03T03:14:56.818Z,14.90
2017-08-03T03:17:24.427Z,16.60
2017-08-03T03:19:52.064Z,14.40
2017-08-03T03:22:19.694Z,14.40
2017-08-03T03:24:47.322Z,13.83
2017-08-03T03:27:14.959Z,14.47
2017-08-03T03:29:42.571Z,16.30
2017-08-03T03:32:10.240Z,13.67
2017-08-03T03:34:37.865Z,15.93
2017-08-03T03:37:05.505Z,15.83
2017-08-03T03:39:33.153Z,13.67
2017-08-03T03:42:01.549Z,13.50
2017-08-03T03:44:29.201Z,14.17
2017-08-03T03:46:56.821Z,14.03
2017-08-03T03:49:25.209Z,13.40
2017-08-03T03:51:52.861Z,12.80
2017-08-03T03:54:20.461Z,12.50
2017-08-03T03:56:48.108Z,12.40
2017-08-03T03:59:15.742Z,13.93
2017-08-03T04:01:43.349Z,12.70
2017-08-03T04:04:11.093Z,13.10
2017-08-03T04:06:38.734Z,12.53
2017-08-03T04:09:06.381Z,13.47
2017-08-03T04:11:33.992Z,14.30
2017-08-03T04:14:01.608Z,12.47
2017-08-03T04:16:29.291Z,14.10
2017-08-03T04:18:58.387Z,14.93
2017-08-03T04:21:26.023Z,11.63
2017-08-03T04:23:55.337Z,13.10
2017-08-03T04:26:22.954Z,12.37
2017-08-03T04:28:50.603Z,12.63
2017-08-03T04:31:18.991Z,11.90
2017-08-03T04:33:46.625Z,12.47
2017-08-03T04:36:14.291Z,11.80
2017-08-03T04:38:41.904Z,12.30
2017-08-03T04:41:10.280Z,13.00
2017-08-03T04:43:37.937Z,12.03
2017-08-03T04:46:05.555Z,11.63
2017-08-03T04:48:33.977Z,13.07
2017-08-03T04:51:01.600Z,11.83
2017-08-03T04:53:29.223Z,12.53
2017-08-03T04:55:57.638Z,12.80
2017-08-03T04:58:25.257Z,11.77
2017-08-03T05:00:52.905Z,13.53
2017-08-03T05:03:20.512Z,11.50
2017-08-03T05:05:48.901Z,12.63
2017-08-03T05:08:16.566Z,11.73
2017-08-03T05:10:44.182Z,11.63
2017-08-03T05:13:12.574Z,12.80
2017-08-03T05:15:40.191Z,13.10
2017-08-03T05:18:07.822Z,12.40
2017-08-03T05:20:36.273Z,12.83
2017-08-03T05:23:03.880Z,14.10
2017-08-03T05:25:31.519Z,13.00
2017-08-03T05:27:59.161Z,14.10
2017-08-03T05:30:26.778Z,12.20
2017-08-03T05:32:54.420Z,12.13
2017-08-03T05:35:22.834Z,13.00
2017-08-03T05:37:50.499Z,12.93
2017-08-03T05:40:18.125Z,13.77
2017-08-03T05:42:45.740Z,12.80
2017-08-03T05:45:14.187Z,13.23
2017-08-03T05:47:42.573Z,13.00
2017-08-03T05:50:10.216Z,11.00
2017-08-03T05:52:37.823Z,12.43
2017-08-03T05:55:05.426Z,9.93
2017-08-03T05:57:33.065Z,11.97
2017-08-03T06:00:00.727Z,11.80
2017-08-03T06:02:28.386Z,11.27
2017-08-03T06:04:56.032Z,10.57
2017-08-03T06:07:23.659Z,11.87
2017-08-03T06:09:51.300Z,10.20
2017-08-03T06:12:18.906Z,9.90
2017-08-03T06:14:47.345Z,9.73
2017-08-03T06:17:14.955Z,10.20
2017-08-03T06:19:42.561Z,9.60
2017-08-03T06:22:10.205Z,9.30
2017-08-03T06:24:37.825Z,8.70
2017-08-03T06:27:05.473Z,9.00
2017-08-03T06:29:33.071Z,9.47
2017-08-03T06:32:01.460Z,9.60
2017-08-03T06:34:29.172Z,9.90
2017-08-03T06:36:57.619Z,9.03
2017-08-03T06:39:25.358Z,10.30
2017-08-03T06:41:52.990Z,9.57
2017-08-03T06:44:20.584Z,9.63
2017-08-03T06:46:48.334Z,10.53
2017-08-03T06:49:16.717Z,10.90
2017-08-03T06:51:44.356Z,10.33
2017-08-03T06:54:11.988Z,9.47
2017-08-03T06:56:40.351Z,9.27
2017-08-03T06:59:08.852Z,9.77
2017-08-03T07:01:36.782Z,8.40
2017-08-03T07:04:04.784Z,7.90
2017-08-03T07:06:32.545Z,9.73
2017-08-03T07:09:00.680Z,8.93
2017-08-03T07:11:28.304Z,9.03
2017-08-03T07:13:55.917Z,8.07
2017-08-03T07:16:23.562Z,7.83
2017-08-03T07:18:51.173Z,7.80
2017-08-03T07:21:18.768Z,7.00
2017-08-03T07:23:47.233Z,7.70
2017-08-03T07:26:15.608Z,7.40
2017-08-03T07:28:44.024Z,8.33
2017-08-03T07:31:11.640Z,6.70
2017-08-03T07:33:39.249Z,7.27
2017-08-03T07:36:07.647Z,7.87
2017-08-03T07:38:35.252Z,6.40
2017-08-03T07:41:03.787Z,6.67
2017-08-03T07:43:31.384Z,9.23
2017-08-03T07:45:58.993Z,5.83
2017-08-03T07:48:26.732Z,5.97
2017-08-03T07:50:54.362Z,6.90
2017-08-03T07:53:22.009Z,6.00
2017-08-03T07:55:49.635Z,6.50
2017-08-03T07:58:18.239Z,7.23
2017-08-03T08:00:45.865Z,5.83
2017-08-03T08:03:13.493Z,6.87
2017-08-03T08:05:41.175Z,6.67
2017-08-03T08:08:15.771Z,7.27
2017-08-03T08:10:44.391Z,6.60
2017-08-03T08:13:12.775Z,7.23
2017-08-03T08:15:41.208Z,7.63
2017-08-03T08:18:09.685Z,7.13
2017-08-03T08:20:38.080Z,7.57
2017-08-03T08:23:05.721Z,6.93
2017-08-03T08:25:34.530Z,6.60
2017-08-03T08:28:02.179Z,8.80
2017-08-03T08:30:29.899Z,7.03
2017-08-03T08:32:57.514Z,8.30
2017-08-03T08:35:26.019Z,8.13
2017-08-03T08:37:53.689Z,8.07
2017-08-03T08:40:21.295Z,7.63
2017-08-03T08:42:48.943Z,7.90
2017-08-03T08:45:16.553Z,8.67
2017-08-03T08:47:44.959Z,7.90
2017-08-03T08:50:12.583Z,9.47
2017-08-03T08:52:40.220Z,9.77
2017-08-03T08:55:08.681Z,10.40
2017-08-03T08:57:37.102Z,11.00
2017-08-03T09:00:04.819Z,11.97
2017-08-03T09:02:32.436Z,11.60
2017-08-03T09:05:01.862Z,14.47
2017-08-03T09:07:29.503Z,13.87
2017-08-03T09:09:57.113Z,14.50
2017-08-03T09:12:24.758Z,12.67
2017-08-03T09:14:52.374Z,11.50
2017-08-03T09:17:20.138Z,12.30
2017-08-03T09:19:47.815Z,13.53
2017-08-03T09:22:16.240Z,11.80
2017-08-03T09:24:43.896Z,12.70
2017-08-03T09:27:11.561Z,9.70
2017-08-03T09:29:39.240Z,13.10
2017-08-03T09:32:06.884Z,12.33
2017-08-03T09:34:34.500Z,10.10
2017-08-03T09:37:02.147Z,8.97
2017-08-03T09:39:29.833Z,10.57
2017-08-03T09:41:57.444Z,9.47
2017-08-03T09:44:25.162Z,9.30
2017-08-03T09:46:52.760Z,10.17
2017-08-03T09:49:20.447Z,10.47
2017-08-03T09:51:48.074Z,10.00
2017-08-03T09:54:15.746Z,9.03
2017-08-03T09:56:43.384Z,9.57
2017-08-03T09:59:11.001Z,8.90
2017-08-03T10:01:38.654Z,9.83
2017-08-03T10:04:06.314Z,11.03
2017-08-03T10:06:34.200Z,10.60
2017-08-03T10:09:01.843Z,10.00
2017-08-03T10:11:29.470Z,11.43
2017-08-03T10:13:57.139Z,11.97
2017-08-03T10:16:24.744Z,10.37
2017-08-03T10:18:52.420Z,11.67
2017-08-03T10:21:20.077Z,10.03
2017-08-03T10:23:47.685Z,9.47
2017-08-03T10:26:15.328Z,11.03
2017-08-03T10:28:42.939Z,11.23
2017-08-03T10:31:10.671Z,10.73
2017-08-03T10:33:38.330Z,11.13
2017-08-03T10:36:11.543Z,12.77
2017-08-03T10:38:44.893Z,10.30
2017-08-03T10:41:17.952Z,11.53
2017-08-03T10:43:46.818Z,11.90
2017-08-03T10:46:15.239Z,12.13
2017-08-03T10:48:42.865Z,11.83
2017-08-03T10:51:10.505Z,11.67
2017-08-03T10:53:38.879Z,12.40
2017-08-03T10:56:09.183Z,10.93
2017-08-03T10:58:36.804Z,10.80
2017-08-03T11:01:04.425Z,12.90
2017-08-03T11:03:32.099Z,12.87
2017-08-03T11:05:59.749Z,11.30
2017-08-03T11:08:27.747Z,10.70
2017-08-03T11:10:55.368Z,10.77
2017-08-03T11:13:23.019Z,9.80
2017-08-03T11:15:50.659Z,9.90
2017-08-03T11:18:18.307Z,10.53
2017-08-03T11:20:46.315Z,10.93
2017-08-03T11:23:13.985Z,9.70
2017-08-03T11:25:42.425Z,9.53
2017-08-03T11:28:10.074Z,8.57
2017-08-03T11:30:37.700Z,10.00
2017-08-03T11:33:05.349Z,8.97
2017-08-03T11:35:33.005Z,9.30
2017-08-03T11:38:00.645Z,9.80
2017-08-03T11:40:28.580Z,8.43
2017-08-03T11:42:56.238Z,8.80
2017-08-03T11:45:23.910Z,8.70
2017-08-03T11:47:51.520Z,7.97
2017-08-03T11:50:19.133Z,7.37
2017-08-03T11:52:47.528Z,7.40
2017-08-03T11:55:15.144Z,6.90
2017-08-03T11:57:42.799Z,6.83
2017-08-03T12:00:10.399Z,7.57
2017-08-03T12:02:38.000Z,7.30
2017-08-03T12:05:05.635Z,7.63
2017-08-03T12:07:33.246Z,7.07
2017-08-03T12:10:00.880Z,7.37
2017-08-03T12:12:28.484Z,7.07
2017-08-03T12:14:56.097Z,6.87
2017-08-03T12:17:23.737Z,7.73
2017-08-03T12:19:51.349Z,7.20
2017-08-03T12:22:18.982Z,7.20
2017-08-03T12:24:46.576Z,8.20
2017-08-03T12:27:14.190Z,6.87
2017-08-03T12:29:41.827Z,7.17
2017-08-03T12:32:09.458Z,7.50
2017-08-03T12:34:37.092Z,8.57
2017-08-03T12:37:05.034Z,5.93
2017-08-03T12:39:32.713Z,7.33
2017-08-03T12:42:00.352Z,7.90
2017-08-03T12:44:27.960Z,6.23
2017-08-03T12:46:55.592Z,6.60
2017-08-03T12:49:23.200Z,6.90
2017-08-03T12:51:50.816Z,6.53
2017-08-03T12:54:18.524Z,7.30
2017-08-03T12:56:46.131Z,8.67
2017-08-03T12:59:13.767Z,6.77
2017-08-03T13:01:41.372Z,8.50
2017-08-03T13:04:08.985Z,8.00
2017-08-03T13:06:36.628Z,7.40
2017-08-03T13:09:04.244Z,6.70
2017-08-03T13:11:31.904Z,7.90
2017-08-03T13:13:59.536Z,7.77
2017-08-03T13:16:27.146Z,8.30
2017-08-03T13:18:54.792Z,6.23
2017-08-03T13:21:22.419Z,6.87
2017-08-03T13:23:50.056Z,8.23
2017-08-03T13:26:17.664Z,9.20
2017-08-03T13:28:46.089Z,8.50
2017-08-03T13:31:13.836Z,8.30
2017-08-03T13:33:41.431Z,6.83
2017-08-03T13:36:09.063Z,7.60
2017-08-03T13:38:36.706Z,7.77
2017-08-03T13:41:04.327Z,7.13
2017-08-03T13:43:32.751Z,7.53
2017-08-03T13:46:00.355Z,6.73
2017-08-03T13:48:27.993Z,6.87
2017-08-03T13:50:55.600Z,9.53
2017-08-03T13:53:23.210Z,6.67
2017-08-03T13:55:50.862Z,9.53
2017-08-03T13:58:18.462Z,9.13
2017-08-03T14:00:46.864Z,8.53
2017-08-03T14:03:14.500Z,7.93
2017-08-03T14:05:42.114Z,8.07
2017-08-03T14:08:09.793Z,8.20
2017-08-03T14:10:37.409Z,7.47
2017-08-03T14:13:05.823Z,7.10
2017-08-03T14:15:33.486Z,8.23
2017-08-03T14:18:01.117Z,10.47
2017-08-03T14:20:28.767Z,7.43
2017-08-03T14:22:56.397Z,8.13
2017-08-03T14:25:24.041Z,8.10
2017-08-03T14:27:51.664Z,9.40
2017-08-03T14:30:19.365Z,8.63
2017-08-03T14:32:47.010Z,10.33
2017-08-03T14:35:14.629Z,8.67
2017-08-03T14:37:42.256Z,8.40
2017-08-03T14:40:09.870Z,8.40
2017-08-03T14:42:37.489Z,9.27
2017-08-03T14:45:05.132Z,9.30
2017-08-03T14:47:32.732Z,7.50
2017-08-03T14:50:01.152Z,8.20
2017-08-03T14:52:28.749Z,8.63
2017-08-03T14:54:57.107Z,9.10
2017-08-03T14:57:24.750Z,7.93
2017-08-03T14:59:53.117Z,9.13
2017-08-03T15:02:21.537Z,9.07
2017-08-03T15:04:49.155Z,8.87
2017-08-03T15:07:16.764Z,8.77
2017-08-03T15:09:45.169Z,7.90
2017-08-03T15:12:12.768Z,8.73
2017-08-03T15:14:40.402Z,8.77
2017-08-03T15:17:08.007Z,7.87
2017-08-03T15:19:35.612Z,9.83
2017-08-03T15:22:03.319Z,9.90
2017-08-03T15:24:30.958Z,10.10
2017-08-03T15:26:58.591Z,11.63
2017-08-03T15:29:26.206Z,10.50
2017-08-03T15:31:53.809Z,8.20
2017-08-03T15:34:21.450Z,8.80
2017-08-03T15:36:49.177Z,9.03
2017-08-03T15:39:16.826Z,8.43
2017-08-03T15:41:44.433Z,9.10
2017-08-03T15:44:12.841Z,7.63
2017-08-03T15:46:40.516Z,6.77
2017-08-03T15:49:08.118Z,7.87
2017-08-03T15:51:35.762Z,7.43
2017-08-03T15:54:03.454Z,8.30
2017-08-03T15:56:31.065Z,7.97
2017-08-03T15:58:58.730Z,8.73
2017-08-03T16:01:26.361Z,6.80
2017-08-03T16:03:53.987Z,7.33
2017-08-03T16:06:21.599Z,6.50
2017-08-03T16:08:49.214Z,7.40
2017-08-03T16:11:16.858Z,7.57
2017-08-03T16:13:44.465Z,6.97
2017-08-03T16:16:12.869Z,7.07
2017-08-03T16:18:40.470Z,6.50
2017-08-03T16:21:08.826Z,7.27
2017-08-03T16:23:36.541Z,8.80
2017-08-03T16:26:04.192Z,6.57
2017-08-03T16:28:31.835Z,6.87
2017-08-03T16:30:59.446Z,7.13
2017-08-03T16:33:27.065Z,6.60
2017-08-03T16:35:55.459Z,7.57
2017-08-03T16:38:23.136Z,7.10
2017-08-03T16:40:50.775Z,7.07
2017-08-03T16:43:18.420Z,6.13
2017-08-03T16:45:46.026Z,6.10
2017-08-03T16:48:13.712Z,6.80
2017-08-03T16:50:41.315Z,6.77
2017-08-03T16:53:11.399Z,5.40
2017-08-03T16:55:39.780Z,6.67
2017-08-03T16:58:07.715Z,7.00
2017-08-03T17:00:35.372Z,6.40
2017-08-03T17:03:04.780Z,6.43
2017-08-03T17:05:34.332Z,6.70
2017-08-03T17:08:04.830Z,6.57
2017-08-03T17:10:32.428Z,7.20
2017-08-03T17:13:00.058Z,7.97
2017-08-03T17:15:28.583Z,7.87
2017-08-03T17:17:56.729Z,7.43
2017-08-03T17:20:24.922Z,6.83
2017-08-03T17:22:53.323Z,7.03
2017-08-03T17:25:20.957Z,7.20
2017-08-03T17:27:49.433Z,7.00
2017-08-03T17:30:17.886Z,6.53
2017-08-03T17:32:46.368Z,7.53
2017-08-03T17:35:14.152Z,6.83
2017-08-03T17:37:42.029Z,6.97
2017-08-03T17:40:11.172Z,7.53
2017-08-03T17:42:38.923Z,6.97
2017-08-03T17:45:06.831Z,7.63
2017-08-03T17:47:35.302Z,8.07
2017-08-03T17:50:03.038Z,8.30
2017-08-03T17:52:30.847Z,7.03
2017-08-03T17:54:58.592Z,7.37
2017-08-03T17:57:26.264Z,6.67
2017-08-03T17:59:54.036Z,7.43
2017-08-03T18:02:22.060Z,9.30
2017-08-03T18:04:49.808Z,10.60
2017-08-03T18:07:17.811Z,7.10
2017-08-03T18:09:45.769Z,7.47
2017-08-03T18:12:13.417Z,8.03
2017-08-03T18:14:41.654Z,6.80
2017-08-03T18:17:09.573Z,7.60
2017-08-03T18:19:37.212Z,6.53
2017-08-03T18:22:04.827Z,7.67
2017-08-03T18:24:32.506Z,7.27
2017-08-03T18:27:00.159Z,8.30
2017-08-03T18:29:27.768Z,6.70
2017-08-03T18:31:55.436Z,7.47
2017-08-03T18:34:23.063Z,7.60
2017-08-03T18:36:50.780Z,6.53
2017-08-03T18:39:18.483Z,7.30
2017-08-03T18:41:47.143Z,8.80
2017-08-03T18:44:14.906Z,7.27
2017-08-03T18:46:42.520Z,7.47
2017-08-03T18:49:10.141Z,11.70
2017-08-03T18:51:38.949Z,7.27
2017-08-03T18:54:06.667Z,7.70
2017-08-03T18:56:35.132Z,8.00
2017-08-03T18:59:03.587Z,6.90
2017-08-03T19:01:32.143Z,8.73
2017-08-03T19:03:59.808Z,11.73
2017-08-03T19:06:28.181Z,6.87
2017-08-03T19:08:55.812Z,7.17
2017-08-03T19:11:23.412Z,8.80
2017-08-03T19:13:51.018Z,7.43
2017-08-03T19:16:19.450Z,7.27
2017-08-03T19:18:47.073Z,8.13
2017-08-03T19:21:15.662Z,7.30
2017-08-03T19:23:43.423Z,7.47
2017-08-03T19:26:11.115Z,8.90
2017-08-03T19:28:38.759Z,7.50
2017-08-03T19:31:06.379Z,7.17
2017-08-03T19:33:34.887Z,7.37
2017-08-03T19:36:02.513Z,8.83
2017-08-03T19:38:30.112Z,7.90
2017-08-03T19:40:57.732Z,8.50
2017-08-03T19:43:25.344Z,7.87
2017-08-03T19:45:53.752Z,8.50
2017-08-03T19:48:21.375Z,8.60
2017-08-03T19:50:49.956Z,7.07
2017-08-03T19:53:17.583Z,8.40
2017-08-03T19:55:45.187Z,8.00
2017-08-03T19:58:12.822Z,8.10
2017-08-03T20:00:40.424Z,7.93
2017-08-03T20:03:08.046Z,7.20
2017-08-03T20:05:41.317Z,9.10
2017-08-03T20:08:08.956Z,7.90
2017-08-03T20:10:43.678Z,8.50
2017-08-03T20:13:17.771Z,8.03
2017-08-03T20:15:46.187Z,8.20
2017-08-03T20:18:16.768Z,8.07
2017-08-03T20:20:44.384Z,8.97
2017-08-03T20:23:15.000Z,8.07
2017-08-03T20:25:42.633Z,8.87
2017-08-03T20:28:10.289Z,8.50
2017-08-03T20:30:37.904Z,8.73
2017-08-03T20:33:05.514Z,8.57
2017-08-03T20:35:33.178Z,8.77
2017-08-03T20:38:00.806Z,8.33
2017-08-03T20:40:28.481Z,8.30
2017-08-03T20:42:56.140Z,10.00
2017-08-03T20:47:56.733Z,8.53
2017-08-03T20:50:24.360Z,10.00
2017-08-03T20:52:52.077Z,9.13
2017-08-03T20:55:19.840Z,9.03
2017-08-03T20:57:47.507Z,8.77
2017-08-03T21:00:16.024Z,9.43
2017-08-03T21:02:43.786Z,8.50
2017-08-03T21:05:11.574Z,9.10
2017-08-03T21:07:39.213Z,8.90
2017-08-03T21:10:06.848Z,8.83
2017-08-03T21:12:34.497Z,8.60
2017-08-03T21:15:02.873Z,9.60
2017-08-03T21:17:31.281Z,9.50
2017-08-03T21:19:58.882Z,9.87
2017-08-03T21:22:27.345Z,9.30
2017-08-03T21:24:55.753Z,9.90
2017-08-03T21:27:23.386Z,9.50
2017-08-03T21:29:51.048Z,9.07
2017-08-03T21:32:18.775Z,8.30
2017-08-03T21:34:46.539Z,9.90
2017-08-03T21:37:14.342Z,9.10
2017-08-03T21:39:42.087Z,10.13
2017-08-03T21:42:10.718Z,9.23
2017-08-03T21:44:38.344Z,9.50
2017-08-03T21:47:05.969Z,9.33
2017-08-03T21:49:33.645Z,9.80
2017-08-03T21:52:01.273Z,9.63
2017-08-03T21:54:28.943Z,9.43
2017-08-03T21:56:56.589Z,9.30
2017-08-03T21:59:24.201Z,9.50
2017-08-03T22:01:51.853Z,9.80
2017-08-03T22:04:19.495Z,9.03
2017-08-03T22:06:48.816Z,9.80
2017-08-03T22:09:16.563Z,9.77
2017-08-03T22:11:44.248Z,9.10
2017-08-03T22:14:12.682Z,8.80
2017-08-03T22:16:40.309Z,9.37
2017-08-03T22:19:07.981Z,10.40
2017-08-03T22:21:35.593Z,9.37
2017-08-03T22:24:03.250Z,9.13
2017-08-03T22:26:31.055Z,10.50
2017-08-03T22:28:58.676Z,9.33
2017-08-03T22:31:26.548Z,10.10
2017-08-03T22:33:54.211Z,9.97
2017-08-03T22:36:22.588Z,8.20
2017-08-03T22:38:50.236Z,10.53
2017-08-03T22:41:18.762Z,9.73
2017-08-03T22:43:46.416Z,9.37
2017-08-03T22:46:14.033Z,10.23
2017-08-03T22:48:41.635Z,9.00
2017-08-03T22:51:09.321Z,9.87
2017-08-03T22:53:36.928Z,9.20
2017-08-03T22:56:04.599Z,11.33
2017-08-03T22:58:32.210Z,10.10
2017-08-03T23:01:00.654Z,10.60
2017-08-03T23:03:28.313Z,10.80
2017-08-03T23:05:56.697Z,10.83
2017-08-03T23:08:25.120Z,9.63
2017-08-03T23:10:52.736Z,11.37
2017-08-03T23:13:20.370Z,9.37
2017-08-03T23:15:48.007Z,10.53
2017-08-03T23:18:15.612Z,10.40
2017-08-03T23:20:43.250Z,10.57
2017-08-03T23:23:11.016Z,11.07
2017-08-03T23:25:38.649Z,10.07
2017-08-03T23:28:06.296Z,10.70
2017-08-03T23:30:33.928Z,9.40
2017-08-03T23:33:01.588Z,9.90
2017-08-03T23:35:29.215Z,11.17
2017-08-03T23:37:56.825Z,11.47
2017-08-03T23:40:24.482Z,10.93
2017-08-03T23:42:52.095Z,11.23
2017-08-03T23:45:19.831Z,11.63
2017-08-03T23:47:47.439Z,11.27
2017-08-03T23:50:15.050Z,10.60
2017-08-03T23:52:43.471Z,10.50
2017-08-03T23:55:11.211Z,11.67
2017-08-03T23:57:38.890Z,10.77
